Johnstonville, California
Current Conditions -  °F | °C
As of 2:38 AM on Saturday 01 Nov 2014 (Local Time) from KAAT Reporting Station
Light Rain Light Rain  
Wind Chill: 42°   Ceiling: 2400
Heat Index: 42°   Visibility: 10mi
Dew Point: 40°   Wind: 3mph
Humidity: 92%   Direction: 350°N
Pressure: 29.66"   Gusts: NA
Location:  40.5172°N, 120.68°W
Report Text: KAAT 010938Z AUTO 35003KT 10SM -RA SCT011 BKN024 OVC033 06/04 A2966 RMK AO2 P0002 T00560044
Loading
Personal Weather Stations






























Interactive Weather Map
Tropical Storm Tracking
New forecast layout! Learn more

10-Day Weather Forecast

Advertisements
Track Severe Weather on mobile